Time;durP1;ratioP1;P1;durP2;ratioP2;P2;SDS_P1;SDS_P2;PMS_P1;PMS_P2;Temp;Humidity;BMP_temperature;BMP_pressure;BME280_temperature;BME280_humidity;BME280_pressure;Samples;Min_cycle;Max_cycle;Signal;HPM_P1;HPM_P2
2022/05/12 00:00:26;;;;;;;8.30;7.60;;;19.10;99.90;;;;;;5052289;28;20924;-66
2022/05/12 00:02:52;;;;;;;8.00;7.17;;;19.10;99.90;;;;;;5051782;28;20412;-66
2022/05/12 00:05:19;;;;;;;7.50;6.80;;;19.00;99.90;;;;;;5052226;28;20519;-66
2022/05/12 00:07:45;;;;;;;7.17;6.67;;;19.10;99.90;;;;;;5052252;28;20549;-66
2022/05/12 00:10:15;;;;;;;7.90;6.90;;;19.10;99.90;;;;;;5050672;28;20420;-66
2022/05/12 00:12:41;;;;;;;10.47;9.70;;;19.00;99.90;;;;;;5051471;28;20428;-66
2022/05/12 00:15:12;;;;;;;11.07;10.27;;;19.00;99.90;;;;;;5051661;28;20470;-66
2022/05/12 00:17:37;;;;;;;8.83;8.00;;;19.00;99.90;;;;;;5052452;28;20408;-66
2022/05/12 00:20:05;;;;;;;9.60;8.90;;;19.00;99.90;;;;;;5051605;28;20972;-66
2022/05/12 00:22:30;;;;;;;6.93;6.33;;;19.00;99.90;;;;;;5050697;28;20558;-66
2022/05/12 00:24:56;;;;;;;9.33;8.53;;;18.90;99.90;;;;;;5050815;28;20447;-66
2022/05/12 00:27:22;;;;;;;8.33;7.63;;;18.80;99.90;;;;;;5051942;28;20637;-66
2022/05/12 00:29:47;;;;;;;8.80;7.83;;;18.80;99.90;;;;;;5051759;28;20272;-71
2022/05/12 00:32:13;;;;;;;8.57;7.83;;;18.80;99.90;;;;;;5051397;28;20182;-66
2022/05/12 00:34:39;;;;;;;9.87;9.00;;;18.70;99.90;;;;;;5052193;28;20178;-66
2022/05/12 00:37:04;;;;;;;10.00;9.13;;;18.70;99.90;;;;;;5051255;28;20606;-66
2022/05/12 00:39:30;;;;;;;10.00;9.00;;;18.70;99.90;;;;;;5051809;28;20622;-66
2022/05/12 00:41:56;;;;;;;10.73;9.77;;;18.60;99.90;;;;;;5048853;28;20213;-66
2022/05/12 00:44:22;;;;;;;13.30;12.20;;;18.60;99.90;;;;;;5051956;28;20642;-66
2022/05/12 00:46:50;;;;;;;11.40;9.30;;;18.60;99.90;;;;;;5051394;28;20173;-66
2022/05/12 00:49:24;;;;;;;14.33;13.20;;;18.50;99.90;;;;;;5051416;28;20170;-66
2022/05/12 00:52:08;;;;;;;10.83;9.83;;;18.50;99.90;;;;;;5051826;28;20416;-71
2022/05/12 00:54:41;;;;;;;12.20;11.20;;;18.50;99.90;;;;;;5052091;28;20436;-66
2022/05/12 00:57:11;;;;;;;11.80;10.70;;;18.50;99.90;;;;;;5033301;28;20450;-66
2022/05/12 00:59:37;;;;;;;14.70;13.33;;;18.50;99.90;;;;;;5051049;28;20932;-66
2022/05/12 01:02:08;;;;;;;11.73;10.63;;;18.50;99.90;;;;;;5051139;28;20451;-66
2022/05/12 01:04:34;;;;;;;12.13;11.13;;;18.50;99.90;;;;;;5052007;28;20235;-66
2022/05/12 01:06:59;;;;;;;12.07;10.70;;;18.50;99.90;;;;;;5049609;28;20830;-66
2022/05/12 01:09:28;;;;;;;11.37;10.27;;;18.50;99.90;;;;;;5051783;28;20480;-66
2022/05/12 01:11:54;;;;;;;11.77;10.57;;;18.50;99.90;;;;;;5050781;28;20186;-70
2022/05/12 01:14:21;;;;;;;11.30;10.17;;;18.50;99.90;;;;;;5051552;28;20763;-66
2022/05/12 01:16:56;;;;;;;11.77;10.77;;;18.50;99.90;;;;;;5051768;28;20503;-66
2022/05/12 01:19:27;;;;;;;11.40;10.27;;;18.40;99.90;;;;;;5051167;28;21005;-66
2022/05/12 01:21:54;;;;;;;11.40;10.33;;;18.40;99.90;;;;;;5050011;28;20501;-71
2022/05/12 01:24:22;;;;;;;10.10;9.10;;;18.30;99.90;;;;;;5051462;28;20412;-66
2022/05/12 01:26:48;;;;;;;10.47;8.60;;;18.40;99.90;;;;;;5051441;28;20415;-66
2022/05/12 01:29:14;;;;;;;10.80;9.83;;;18.40;99.90;;;;;;5048287;28;20454;-66
2022/05/12 01:31:41;;;;;;;9.27;8.33;;;18.40;99.90;;;;;;5050717;28;20795;-66
2022/05/12 01:34:10;;;;;;;8.30;7.70;;;18.30;99.90;;;;;;5050929;28;20178;-66
2022/05/12 01:36:37;;;;;;;10.00;9.07;;;18.20;99.90;;;;;;5054846;28;20419;-66
2022/05/12 01:39:04;;;;;;;11.30;10.30;;;18.20;99.90;;;;;;5054302;28;20775;-66
2022/05/12 01:41:30;;;;;;;10.30;9.50;;;18.20;99.90;;;;;;5054896;28;21015;-66
2022/05/12 01:43:56;;;;;;;10.83;9.87;;;18.20;99.90;;;;;;5054529;28;20412;-69
2022/05/12 01:46:22;;;;;;;8.93;8.10;;;18.10;99.90;;;;;;5054009;28;20181;-66
2022/05/12 01:48:48;;;;;;;8.37;7.57;;;18.10;99.90;;;;;;5055258;28;20412;-65
2022/05/12 01:51:13;;;;;;;8.43;7.57;;;18.10;99.90;;;;;;5053563;28;20265;-65
2022/05/12 01:53:39;;;;;;;8.00;7.20;;;18.10;99.90;;;;;;5053742;28;20177;-66
2022/05/12 01:56:08;;;;;;;8.47;7.67;;;18.10;99.90;;;;;;5053961;28;20184;-66
2022/05/12 01:58:34;;;;;;;7.83;7.23;;;18.00;99.90;;;;;;5055252;28;20829;-66
2022/05/12 02:01:00;;;;;;;8.40;7.60;;;17.90;99.90;;;;;;5052581;28;20471;-66
2022/05/12 02:03:26;;;;;;;7.00;6.40;;;17.90;99.90;;;;;;5054898;28;20416;-66
2022/05/12 02:05:51;;;;;;;8.50;7.73;;;17.90;99.90;;;;;;5054836;28;20490;-66
2022/05/12 02:08:19;;;;;;;8.20;7.40;;;17.90;99.90;;;;;;5053709;28;20269;-66
2022/05/12 02:10:48;;;;;;;7.30;6.60;;;17.90;99.90;;;;;;5054808;28;20250;-66
2022/05/12 02:13:17;;;;;;;8.63;7.87;;;17.90;99.90;;;;;;5051167;28;21165;-65
2022/05/12 02:15:43;;;;;;;8.63;7.83;;;17.90;99.90;;;;;;5054688;28;20416;-66
2022/05/12 02:18:09;;;;;;;6.70;5.63;;;17.80;99.90;;;;;;5053728;28;20408;-66
2022/05/12 02:20:35;;;;;;;5.60;5.20;;;17.80;99.90;;;;;;5054536;28;20229;-66
2022/05/12 02:23:01;;;;;;;6.50;5.50;;;17.80;99.90;;;;;;5051490;28;20436;-66
2022/05/12 02:25:27;;;;;;;6.83;5.23;;;17.80;99.90;;;;;;5054456;28;20280;-66
2022/05/12 02:27:55;;;;;;;9.17;6.27;;;17.70;99.90;;;;;;5053832;28;20181;-66
2022/05/12 02:30:28;;;;;;;5.30;4.80;;;17.60;99.90;;;;;;5053914;28;20642;-66
2022/05/12 02:32:54;;;;;;;6.73;5.10;;;17.60;99.90;;;;;;5054421;28;20408;-66
2022/05/12 02:35:21;;;;;;;5.87;5.37;;;17.50;99.90;;;;;;5053379;28;20562;-66
2022/05/12 02:37:47;;;;;;;6.40;5.80;;;17.40;99.90;;;;;;5053776;28;20432;-66
2022/05/12 02:40:16;;;;;;;6.53;5.90;;;17.40;99.90;;;;;;5053420;28;20415;-66
2022/05/12 02:42:41;;;;;;;8.13;7.53;;;17.40;99.90;;;;;;5054015;28;20212;-65
2022/05/12 02:45:08;;;;;;;5.13;4.70;;;17.40;99.90;;;;;;5053107;28;20503;-66
2022/05/12 02:47:34;;;;;;;6.27;5.67;;;17.40;99.90;;;;;;5052223;28;20184;-66
2022/05/12 02:50:00;;;;;;;7.23;5.50;;;17.30;99.90;;;;;;5052745;28;20954;-70
2022/05/12 02:52:26;;;;;;;6.33;5.70;;;17.30;99.90;;;;;;5052499;28;20452;-66
2022/05/12 02:54:51;;;;;;;5.87;5.37;;;17.30;99.90;;;;;;5054285;28;20588;-66
2022/05/12 02:57:18;;;;;;;6.60;6.00;;;17.20;99.90;;;;;;5052810;28;20490;-66
2022/05/12 02:59:44;;;;;;;6.20;5.60;;;17.10;99.90;;;;;;5053888;28;20252;-66
2022/05/12 03:02:09;;;;;;;5.80;5.40;;;17.10;99.90;;;;;;5051865;28;20543;-66
2022/05/12 03:04:35;;;;;;;6.40;5.80;;;17.10;99.90;;;;;;5053797;28;20200;-66
2022/05/12 03:07:01;;;;;;;6.40;5.57;;;17.00;99.90;;;;;;5051523;28;20205;-71
2022/05/12 03:09:28;;;;;;;6.47;5.90;;;16.90;99.90;;;;;;5053750;28;20174;-66
2022/05/12 03:11:54;;;;;;;5.67;4.90;;;16.90;99.90;;;;;;5052411;28;20439;-66
2022/05/12 03:14:19;;;;;;;5.10;4.70;;;16.90;99.90;;;;;;5051490;28;20511;-66
2022/05/12 03:16:45;;;;;;;5.53;4.90;;;16.80;99.90;;;;;;5052539;28;20173;-66
2022/05/12 03:19:11;;;;;;;4.83;4.43;;;16.80;99.90;;;;;;5052505;28;20218;-66
2022/05/12 03:21:37;;;;;;;4.47;4.10;;;16.80;99.90;;;;;;5053414;28;20213;-66
2022/05/12 03:24:04;;;;;;;4.73;4.43;;;16.80;99.90;;;;;;5052316;28;20181;-66
2022/05/12 03:26:30;;;;;;;4.30;4.00;;;16.80;99.90;;;;;;5052003;28;20585;-66
2022/05/12 03:28:56;;;;;;;4.93;4.07;;;16.80;99.90;;;;;;5053263;28;20431;-66
2022/05/12 03:31:22;;;;;;;4.50;4.10;;;16.70;99.90;;;;;;5052443;28;20415;-66
2022/05/12 03:33:48;;;;;;;4.57;4.17;;;16.70;99.90;;;;;;5052832;28;20420;-66
2022/05/12 03:36:15;;;;;;;5.70;4.37;;;16.60;99.90;;;;;;5051259;28;20427;-66
2022/05/12 03:38:42;;;;;;;5.10;4.70;;;16.60;99.90;;;;;;5053079;28;20639;-66
2022/05/12 03:41:08;;;;;;;5.20;4.80;;;16.50;99.90;;;;;;5051034;28;20459;-66
2022/05/12 03:46:18;;;;;;;5.40;4.90;;;16.50;99.90;;;;;;5051004;28;20432;-66
2022/05/12 03:48:44;;;;;;;6.20;5.80;;;16.50;99.90;;;;;;5053157;28;20426;-66
2022/05/12 03:51:10;;;;;;;4.43;4.03;;;16.50;99.90;;;;;;5051952;28;20185;-66
2022/05/12 03:53:37;;;;;;;4.80;4.40;;;16.50;99.90;;;;;;5052004;28;20180;-66
2022/05/12 03:56:05;;;;;;;5.33;4.93;;;16.50;99.90;;;;;;5050835;28;20915;-72
2022/05/12 03:58:31;;;;;;;5.67;4.60;;;16.50;99.90;;;;;;5052095;28;20404;-66
2022/05/12 04:00:57;;;;;;;5.07;4.77;;;16.50;99.90;;;;;;5052714;28;20451;-66
2022/05/12 04:03:23;;;;;;;5.60;5.20;;;16.50;99.90;;;;;;5050772;28;20595;-66
2022/05/12 04:05:49;;;;;;;6.00;5.07;;;16.50;99.90;;;;;;5052699;28;20404;-66
2022/05/12 04:08:15;;;;;;;5.13;4.73;;;16.40;99.90;;;;;;5051388;28;20251;-66
2022/05/12 04:10:41;;;;;;;6.83;5.17;;;16.40;99.90;;;;;;5052406;28;20749;-66
2022/05/12 04:13:07;;;;;;;5.60;5.20;;;16.40;99.90;;;;;;5050185;28;20439;-66
2022/05/12 04:15:33;;;;;;;8.50;7.80;;;16.40;99.90;;;;;;5052718;28;20181;-66
2022/05/12 04:18:05;;;;;;;6.47;5.90;;;16.40;99.90;;;;;;5052211;28;20219;-67
2022/05/12 04:20:34;;;;;;;6.73;6.13;;;16.40;99.90;;;;;;5052695;28;20463;-66
2022/05/12 04:23:00;;;;;;;5.63;4.87;;;16.50;99.90;;;;;;5052331;28;20431;-66
2022/05/12 04:25:26;;;;;;;5.80;5.40;;;16.50;99.90;;;;;;5051452;28;20485;-66
2022/05/12 04:27:52;;;;;;;5.53;5.13;;;16.50;99.90;;;;;;5052331;28;20227;-66
2022/05/12 04:30:22;;;;;;;6.60;6.10;;;16.50;99.90;;;;;;5050258;28;20536;-66
2022/05/12 04:32:48;;;;;;;6.00;5.40;;;16.50;99.90;;;;;;5051973;28;20506;-66
2022/05/12 04:35:14;;;;;;;7.40;6.73;;;16.50;99.90;;;;;;5048283;28;20503;-66
2022/05/12 04:37:48;;;;;;;7.80;7.10;;;16.60;99.90;;;;;;5052244;28;20188;-66
2022/05/12 04:40:26;;;;;;;7.57;6.87;;;16.60;99.90;;;;;;5047018;28;20443;-67
2022/05/12 04:42:54;;;;;;;7.00;6.40;;;16.60;99.90;;;;;;5052469;28;20420;-67
2022/05/12 04:45:21;;;;;;;6.87;6.20;;;16.70;99.90;;;;;;5051076;28;20561;-67
2022/05/12 04:47:48;;;;;;;7.80;7.20;;;16.70;99.90;;;;;;5051863;28;20419;-66
2022/05/12 04:50:20;;;;;;;7.50;6.80;;;16.70;99.90;;;;;;5051083;28;20423;-67
2022/05/12 04:52:47;;;;;;;7.60;6.90;;;16.80;99.90;;;;;;5051061;28;20795;-67
2022/05/12 04:55:13;;;;;;;7.90;6.87;;;16.80;99.90;;;;;;5048578;28;20432;-67
2022/05/12 04:57:41;;;;;;;9.17;8.27;;;16.80;99.90;;;;;;5042882;28;20436;-67
2022/05/12 05:00:14;;;;;;;8.50;7.60;;;16.80;99.90;;;;;;5050206;28;20412;-72
2022/05/12 05:02:40;;;;;;;8.90;8.20;;;16.90;99.90;;;;;;5049282;28;20475;-67
2022/05/12 05:05:07;;;;;;;9.03;8.23;;;16.90;99.90;;;;;;5050064;28;20541;-72
2022/05/12 05:07:33;;;;;;;7.30;6.60;;;16.90;99.90;;;;;;5049154;28;20760;-67
2022/05/12 05:09:59;;;;;;;8.43;6.77;;;16.90;99.90;;;;;;5040206;28;20433;-67
2022/05/12 05:12:25;;;;;;;8.30;7.50;;;17.00;99.90;;;;;;5047278;28;20931;-67
2022/05/12 05:14:51;;;;;;;8.80;7.63;;;16.90;99.90;;;;;;5047956;28;20193;-67
2022/05/12 05:17:17;;;;;;;8.40;7.50;;;17.00;99.90;;;;;;5054890;28;20427;-67
2022/05/12 05:19:43;;;;;;;8.00;6.90;;;17.00;99.90;;;;;;5040820;28;20491;-67
2022/05/12 05:22:09;;;;;;;8.27;7.40;;;17.00;99.90;;;;;;5034792;28;20475;-72
2022/05/12 05:24:35;;;;;;;8.10;7.23;;;17.00;99.90;;;;;;5041693;28;20181;-67
2022/05/12 05:27:01;;;;;;;7.50;6.90;;;17.00;99.90;;;;;;5055339;28;20412;-67
2022/05/12 05:29:27;;;;;;;9.23;6.90;;;17.00;99.90;;;;;;5052901;28;20444;-67
2022/05/12 05:31:53;;;;;;;6.50;5.60;;;17.00;99.90;;;;;;5045736;28;20471;-67
2022/05/12 05:34:18;;;;;;;8.40;6.60;;;17.00;99.90;;;;;;5053309;28;20254;-67
2022/05/12 05:36:45;;;;;;;9.57;6.97;;;17.00;99.90;;;;;;5055221;28;20912;-67
2022/05/12 05:39:25;;;;;;;6.93;5.53;;;17.10;99.90;;;;;;5048778;28;20210;-67
2022/05/12 05:41:56;;;;;;;6.60;6.00;;;17.00;99.90;;;;;;5050783;28;20474;-67
2022/05/12 05:44:22;;;;;;;6.47;5.87;;;17.00;99.90;;;;;;5054421;28;20412;-67
2022/05/12 05:46:47;;;;;;;6.07;5.57;;;17.00;99.90;;;;;;5055199;28;20773;-67
2022/05/12 05:49:14;;;;;;;8.47;6.07;;;17.00;99.90;;;;;;5050567;28;20189;-68
2022/05/12 05:54:28;;;;;;;10.50;9.10;;;17.00;99.80;;;;;;5056359;28;20764;-70
2022/05/12 05:56:54;;;;;;;7.93;7.13;;;17.00;99.80;;;;;;5058309;28;20420;-70
2022/05/12 05:59:19;;;;;;;5.80;5.20;;;17.00;99.90;;;;;;5053087;28;20419;-70
2022/05/12 06:01:45;;;;;;;6.70;6.03;;;16.90;99.90;;;;;;5054783;28;20459;-71
2022/05/12 06:04:11;;;;;;;6.07;5.53;;;16.90;99.90;;;;;;5054567;28;20184;-70
2022/05/12 06:06:36;;;;;;;6.27;5.60;;;16.80;99.90;;;;;;5054646;28;20208;-68
2022/05/12 06:09:03;;;;;;;6.57;5.90;;;16.80;99.60;;;;;;5053468;28;20196;-68
2022/05/12 06:11:28;;;;;;;5.70;5.17;;;16.70;99.90;;;;;;5053199;28;20747;-68
2022/05/12 06:13:54;;;;;;;6.37;5.07;;;16.70;99.70;;;;;;5054227;28;20427;-70
2022/05/12 06:16:20;;;;;;;7.37;5.30;;;16.70;99.80;;;;;;5053294;28;20613;-71
2022/05/12 06:18:47;;;;;;;9.57;5.50;;;16.70;99.90;;;;;;5053499;28;20221;-70
2022/05/12 06:21:12;;;;;;;6.00;5.27;;;16.70;99.80;;;;;;5051783;28;20202;-70
2022/05/12 06:23:39;;;;;;;5.63;4.47;;;16.70;99.90;;;;;;5041402;28;20443;-71
2022/05/12 06:26:06;;;;;;;4.70;4.30;;;16.70;99.80;;;;;;5054585;28;20184;-71
2022/05/12 06:28:32;;;;;;;5.63;4.80;;;16.70;99.50;;;;;;5057565;28;20419;-71
2022/05/12 06:30:58;;;;;;;6.00;5.33;;;16.70;99.80;;;;;;5052970;28;20484;-70
2022/05/12 06:33:23;;;;;;;9.47;5.97;;;16.80;99.60;;;;;;5052952;28;20223;-71
2022/05/12 06:35:50;;;;;;;5.70;5.13;;;16.80;99.90;;;;;;5050462;28;20180;-68
2022/05/12 06:38:16;;;;;;;6.20;4.90;;;16.90;99.90;;;;;;5052272;28;20636;-68
2022/05/12 06:40:42;;;;;;;5.33;4.83;;;16.90;99.70;;;;;;5053495;28;20428;-67
2022/05/12 06:43:08;;;;;;;6.50;5.27;;;16.90;99.90;;;;;;5052440;28;20220;-67
2022/05/12 06:45:34;;;;;;;5.53;5.03;;;17.00;99.90;;;;;;5050348;28;20186;-72
2022/05/12 06:48:01;;;;;;;5.70;5.20;;;17.00;98.90;;;;;;5052716;28;20926;-68
2022/05/12 06:50:29;;;;;;;6.10;5.50;;;17.00;98.90;;;;;;5052934;28;20238;-72
2022/05/12 06:52:56;;;;;;;7.07;5.50;;;17.10;98.90;;;;;;5053471;28;20535;-71
2022/05/12 06:55:24;;;;;;;8.57;5.60;;;17.20;99.20;;;;;;5052331;28;20460;-71
2022/05/12 06:57:49;;;;;;;7.70;6.57;;;17.20;99.30;;;;;;5053308;28;20428;-72
2022/05/12 07:00:16;;;;;;;7.30;6.03;;;17.20;99.10;;;;;;5049058;28;20425;-71
2022/05/12 07:02:47;;;;;;;8.57;6.40;;;17.20;99.90;;;;;;5050001;28;20209;-72
2022/05/12 07:05:19;;;;;;;7.90;6.50;;;17.20;99.90;;;;;;5052167;28;20435;-72
2022/05/12 07:07:45;;;;;;;7.17;6.57;;;17.20;99.90;;;;;;5053630;28;20440;-71
2022/05/12 07:10:14;;;;;;;9.40;6.30;;;17.10;99.40;;;;;;5050693;28;20469;-71
2022/05/12 07:12:41;;;;;;;7.50;6.80;;;17.20;99.50;;;;;;5051819;28;20427;-72
2022/05/12 07:15:08;;;;;;;6.70;6.10;;;17.30;99.50;;;;;;5052381;28;20424;-68
2022/05/12 07:17:37;;;;;;;10.03;9.10;;;17.30;99.30;;;;;;5053359;28;20408;-68
2022/05/12 07:28:18;;;;;;;7.27;6.60;;;17.50;98.10;;;;;;5051423;28;20443;-69
2022/05/12 07:31:02;;;;;;;7.27;6.67;;;17.60;98.50;;;;;;5052821;28;20427;-68
2022/05/12 07:33:36;;;;;;;7.40;6.70;;;17.70;99.30;;;;;;5051042;28;20181;-68
2022/05/12 07:36:05;;;;;;;7.57;6.83;;;17.80;98.50;;;;;;5053058;28;20473;-68
2022/05/12 07:38:31;;;;;;;7.73;7.10;;;17.90;98.10;;;;;;5051914;28;20946;-68
2022/05/12 07:40:56;;;;;;;8.30;7.57;;;18.00;97.60;;;;;;5053370;28;20484;-68
2022/05/12 07:43:22;;;;;;;10.17;9.10;;;18.10;96.80;;;;;;5051979;28;20205;-68
2022/05/12 07:45:49;;;;;;;9.50;8.47;;;18.10;96.30;;;;;;5052572;28;20186;-68
2022/05/12 07:48:15;;;;;;;8.73;7.90;;;18.10;97.70;;;;;;5051904;28;20185;-68
2022/05/12 07:50:41;;;;;;;10.87;9.90;;;18.10;97.90;;;;;;5050618;28;20873;-70
2022/05/12 07:53:08;;;;;;;10.63;9.60;;;18.10;96.70;;;;;;5050158;28;20420;-68
2022/05/12 07:55:34;;;;;;;9.60;8.90;;;18.10;96.00;;;;;;5051043;28;20440;-68
2022/05/12 07:58:00;;;;;;;8.40;7.70;;;18.20;97.00;;;;;;5053273;28;20408;-68
2022/05/12 08:00:26;;;;;;;8.73;7.93;;;18.20;96.90;;;;;;5052785;28;20416;-68
2022/05/12 08:02:52;;;;;;;11.03;6.53;;;18.30;96.50;;;;;;5053151;28;20491;-68
2022/05/12 08:05:18;;;;;;;6.57;5.97;;;18.40;96.00;;;;;;5052418;28;20440;-68
2022/05/12 08:07:46;;;;;;;5.50;5.00;;;18.50;94.70;;;;;;5053043;28;20177;-68
2022/05/12 08:10:12;;;;;;;5.07;4.67;;;18.60;93.90;;;;;;5051747;28;20783;-68
2022/05/12 08:12:37;;;;;;;6.87;5.73;;;18.70;94.60;;;;;;5052074;28;20419;-68
2022/05/12 08:15:05;;;;;;;5.97;4.30;;;18.80;94.50;;;;;;5052663;28;20467;-68
2022/05/12 08:17:30;;;;;;;4.80;4.30;;;18.90;93.10;;;;;;5051941;28;20260;-68
2022/05/12 08:19:57;;;;;;;4.93;4.53;;;19.00;93.00;;;;;;5052355;28;20500;-68
2022/05/12 08:22:24;;;;;;;4.80;4.40;;;19.10;93.10;;;;;;5052102;28;20201;-68
2022/05/12 08:24:51;;;;;;;5.07;4.63;;;19.30;93.20;;;;;;5052677;28;20412;-68
2022/05/12 08:27:17;;;;;;;5.53;5.00;;;19.40;92.70;;;;;;5052425;28;20819;-68
2022/05/12 08:29:43;;;;;;;4.87;4.50;;;19.50;92.50;;;;;;5052352;28;20427;-68
2022/05/12 08:32:09;;;;;;;7.10;6.50;;;19.60;92.20;;;;;;5052492;28;20416;-68
2022/05/12 08:34:35;;;;;;;6.80;6.13;;;19.60;91.10;;;;;;5052258;28;20178;-68
2022/05/12 08:37:01;;;;;;;5.90;5.57;;;19.70;91.80;;;;;;5052582;28;20445;-68
2022/05/12 08:39:28;;;;;;;5.40;5.10;;;19.70;91.00;;;;;;5051915;28;20738;-67
2022/05/12 08:42:07;;;;;;;7.07;6.40;;;19.80;91.10;;;;;;5052470;28;20466;-67
2022/05/12 08:44:39;;;;;;;5.70;5.30;;;19.80;89.50;;;;;;5051323;28;20400;-67
2022/05/12 08:47:09;;;;;;;6.93;6.20;;;19.80;91.20;;;;;;5052599;28;20400;-67
2022/05/12 08:49:50;;;;;;;5.73;5.27;;;19.80;90.90;;;;;;5052025;28;20442;-67
2022/05/12 08:52:28;;;;;;;5.37;4.97;;;19.70;89.50;;;;;;5052458;28;20449;-67
2022/05/12 08:55:15;;;;;;;5.70;5.40;;;19.60;88.10;;;;;;5052301;28;20419;-67
2022/05/12 08:58:06;;;;;;;5.60;5.20;;;19.50;90.20;;;;;;5051550;28;20442;-67
2022/05/12 09:01:09;;;;;;;5.70;5.30;;;19.60;91.70;;;;;;5051770;28;20442;-67
2022/05/12 09:03:58;;;;;;;5.93;5.50;;;19.60;91.20;;;;;;5029374;28;20445;-67
2022/05/12 09:06:32;;;;;;;6.93;6.33;;;19.70;90.40;;;;;;5050373;28;20493;-68
2022/05/12 09:09:23;;;;;;;5.00;4.60;;;19.80;89.70;;;;;;5051049;28;20499;-67
2022/05/12 09:12:09;;;;;;;5.63;4.43;;;19.70;86.40;;;;;;5052211;28;20466;-67
2022/05/12 09:14:43;;;;;;;5.43;4.93;;;19.70;85.70;;;;;;5051658;28;20465;-67
2022/05/12 09:17:18;;;;;;;5.43;5.03;;;19.70;89.20;;;;;;5052279;28;20470;-67
2022/05/12 09:19:44;;;;;;;4.90;4.60;;;19.80;90.20;;;;;;5052167;28;20507;-67
2022/05/12 09:22:10;;;;;;;5.27;4.87;;;19.90;86.30;;;;;;5051760;28;20499;-67
2022/05/12 09:24:38;;;;;;;6.90;6.20;;;19.90;84.00;;;;;;5051544;28;20236;-67
2022/05/12 09:27:07;;;;;;;5.03;4.63;;;20.00;84.70;;;;;;5052100;28;20455;-68
2022/05/12 09:29:49;;;;;;;4.83;4.50;;;20.20;83.60;;;;;;5051517;28;20424;-67
2022/05/12 09:32:23;;;;;;;7.53;5.03;;;20.40;86.00;;;;;;5051804;28;20951;-67
2022/05/12 09:35:08;;;;;;;5.70;4.70;;;20.60;85.90;;;;;;5051749;28;20892;-68
2022/05/12 09:37:37;;;;;;;5.20;4.70;;;20.60;84.60;;;;;;5051418;28;20421;-68
2022/05/12 09:40:36;;;;;;;4.80;4.50;;;20.80;85.20;;;;;;5051966;28;20474;-68
2022/05/12 09:43:28;;;;;;;5.30;4.90;;;21.00;84.80;;;;;;5051933;28;20440;-67
2022/05/12 09:46:17;;;;;;;4.60;4.30;;;21.20;82.20;;;;;;5048570;28;20442;-67
2022/05/12 09:48:45;;;;;;;5.60;5.20;;;21.40;78.50;;;;;;5049823;28;20920;-68
2022/05/12 09:51:32;;;;;;;4.33;3.93;;;21.60;81.90;;;;;;5051846;28;20453;-68
2022/05/12 09:54:19;;;;;;;4.60;4.27;;;21.70;74.70;;;;;;5051614;28;20487;-67
2022/05/12 09:57:01;;;;;;;5.00;4.70;;;21.70;77.50;;;;;;5051771;28;21307;-68
2022/05/12 09:59:30;;;;;;;4.90;4.60;;;21.90;76.80;;;;;;5037032;28;20519;-68
2022/05/12 10:02:10;;;;;;;6.37;6.07;;;22.10;77.70;;;;;;5054992;28;20589;-67
2022/05/12 10:10:15;;;;;;;5.90;5.60;;;22.30;66.90;;;;;;5055289;28;20385;-67
2022/05/12 10:13:03;;;;;;;4.07;3.87;;;22.40;63.70;;;;;;5054594;28;20731;-67
2022/05/12 10:15:35;;;;;;;5.50;5.10;;;22.40;66.10;;;;;;5053017;28;20185;-68
2022/05/12 10:18:28;;;;;;;5.37;5.07;;;22.30;66.10;;;;;;5055036;28;20462;-68
2022/05/12 10:21:01;;;;;;;6.03;5.63;;;22.30;67.00;;;;;;5055074;28;20429;-68
2022/05/12 10:23:52;;;;;;;5.80;4.50;;;22.40;68.70;;;;;;5054424;28;20498;-68
2022/05/12 10:26:31;;;;;;;6.50;5.90;;;22.50;71.90;;;;;;5054947;28;20426;-67
2022/05/12 10:29:04;;;;;;;6.93;6.33;;;22.60;70.30;;;;;;5054854;28;20396;-68
2022/05/12 10:31:49;;;;;;;5.33;4.90;;;22.70;74.50;;;;;;5054301;28;20800;-68
2022/05/12 10:34:46;;;;;;;5.37;5.07;;;22.80;68.50;;;;;;5055026;28;20408;-68
2022/05/12 10:37:39;;;;;;;6.70;6.20;;;22.90;67.80;;;;;;5054850;28;20429;-67
2022/05/12 10:40:15;;;;;;;6.13;5.63;;;23.00;67.50;;;;;;5054755;28;20400;-68
2022/05/12 10:42:57;;;;;;;6.23;5.73;;;23.20;65.60;;;;;;5053900;28;20447;-68
2022/05/12 10:45:34;;;;;;;6.90;6.40;;;23.30;66.90;;;;;;5054497;28;20761;-68
2022/05/12 10:48:06;;;;;;;6.10;5.80;;;23.40;66.90;;;;;;5053452;28;20404;-68
2022/05/12 10:50:49;;;;;;;5.90;5.00;;;23.30;64.40;;;;;;5053700;28;20451;-68
2022/05/12 10:54:09;;;;;;;5.50;5.20;;;23.10;64.20;;;;;;5053985;28;20405;-68
2022/05/12 10:57:11;;;;;;;6.43;5.90;;;22.80;64.00;;;;;;5044866;28;20486;-67
2022/05/12 10:59:58;;;;;;;6.40;5.80;;;22.70;69.10;;;;;;5054032;28;20419;-68
2022/05/12 11:02:38;;;;;;;5.60;5.10;;;22.70;68.90;;;;;;5053982;28;20455;-68
2022/05/12 11:05:24;;;;;;;6.30;5.80;;;22.80;69.20;;;;;;5053130;28;20404;-68
2022/05/12 11:08:02;;;;;;;6.77;6.07;;;22.90;67.40;;;;;;5053586;28;20416;-68
2022/05/12 11:10:42;;;;;;;6.33;5.73;;;23.10;69.00;;;;;;5052270;28;20804;-68
2022/05/12 11:13:12;;;;;;;6.00;5.60;;;23.20;67.10;;;;;;5053965;28;20451;-68
2022/05/12 11:15:55;;;;;;;5.87;5.47;;;23.20;65.00;;;;;;5053251;28;20493;-68
2022/05/12 11:18:51;;;;;;;5.47;5.10;;;23.10;67.40;;;;;;5053758;28;20416;-67
2022/05/12 11:21:23;;;;;;;5.83;5.33;;;23.00;63.90;;;;;;5052605;28;20495;-67
2022/05/12 11:23:58;;;;;;;6.57;5.97;;;22.90;63.70;;;;;;5051883;28;20985;-68
2022/05/12 11:26:57;;;;;;;7.60;7.00;;;22.90;65.60;;;;;;5053730;28;20427;-68
2022/05/12 11:29:48;;;;;;;7.73;7.13;;;22.90;68.50;;;;;;5053768;28;20397;-68
2022/05/12 11:32:35;;;;;;;7.23;6.53;;;23.00;70.50;;;;;;5053627;28;20412;-68
2022/05/12 11:35:07;;;;;;;7.07;5.83;;;23.10;65.20;;;;;;5053806;28;20403;-67
2022/05/12 11:37:52;;;;;;;5.90;5.53;;;23.10;64.50;;;;;;5053037;28;20443;-68
2022/05/12 11:40:49;;;;;;;4.77;4.47;;;23.20;67.30;;;;;;5053541;28;20405;-68
2022/05/12 11:46:23;;;;;;;5.60;5.17;;;23.30;64.80;;;;;;5053419;28;20435;-68
2022/05/12 11:49:07;;;;;;;6.37;5.40;;;23.20;64.10;;;;;;5052803;28;20485;-68
2022/05/12 11:52:15;;;;;;;4.57;4.27;;;23.20;62.30;;;;;;5052770;28;20771;-68
2022/05/12 11:54:53;;;;;;;5.00;4.53;;;23.10;64.80;;;;;;5042292;28;20432;-68
2022/05/12 11:57:38;;;;;;;4.77;4.47;;;23.00;63.70;;;;;;5053166;28;20404;-68
2022/05/12 12:00:29;;;;;;;7.87;7.27;;;23.00;68.90;;;;;;5053232;28;20404;-68
2022/05/12 12:02:54;;;;;;;5.27;4.83;;;23.00;65.30;;;;;;5051061;28;20880;-68
2022/05/12 12:05:26;;;;;;;6.53;4.97;;;23.10;62.60;;;;;;5053023;28;20412;-67
2022/05/12 12:07:53;;;;;;;5.07;4.70;;;23.20;63.30;;;;;;5052152;28;20186;-67
2022/05/12 12:10:27;;;;;;;7.10;6.70;;;23.20;64.80;;;;;;5053012;28;20416;-68
2022/05/12 12:13:04;;;;;;;4.93;4.63;;;23.20;62.30;;;;;;5052308;28;20419;-68
2022/05/12 12:15:30;;;;;;;5.73;5.20;;;23.20;61.90;;;;;;5052234;28;20416;-69
2022/05/12 12:18:25;;;;;;;5.60;5.13;;;23.30;63.80;;;;;;5052881;28;20417;-67
2022/05/12 12:20:57;;;;;;;5.00;4.60;;;23.30;62.70;;;;;;5051703;28;20459;-68
2022/05/12 12:23:35;;;;;;;6.03;5.43;;;23.30;65.20;;;;;;5052753;28;20427;-68
2022/05/12 12:26:10;;;;;;;6.57;6.07;;;23.30;62.90;;;;;;5052704;28;20399;-68
2022/05/12 12:28:55;;;;;;;5.63;5.13;;;23.30;63.90;;;;;;5051848;28;20872;-68
2022/05/12 12:31:37;;;;;;;4.93;4.63;;;23.30;63.40;;;;;;5052973;28;20405;-68
2022/05/12 12:34:15;;;;;;;4.50;4.20;;;23.40;62.90;;;;;;5052236;28;20397;-68
2022/05/12 12:36:49;;;;;;;4.70;4.30;;;23.40;62.60;;;;;;5051342;28;20420;-68
2022/05/12 12:39:40;;;;;;;4.57;4.27;;;23.50;61.40;;;;;;5051020;28;20474;-68
2022/05/12 12:42:30;;;;;;;4.90;4.60;;;23.50;61.00;;;;;;5052171;28;20958;-68
2022/05/12 12:45:03;;;;;;;5.70;4.00;;;23.50;58.80;;;;;;5052000;28;20416;-68
2022/05/12 12:47:43;;;;;;;4.87;4.47;;;23.50;59.60;;;;;;5052628;28;20738;-68
2022/05/12 12:50:24;;;;;;;4.70;4.40;;;23.60;60.50;;;;;;5052660;28;20432;-68
2022/05/12 12:52:50;;;;;;;5.50;5.10;;;23.60;59.40;;;;;;5051925;28;20412;-68
2022/05/12 12:58:04;;;;;;;5.33;4.83;;;23.60;61.50;;;;;;5052457;28;20849;-68
2022/05/12 13:00:35;;;;;;;4.70;4.23;;;23.60;59.70;;;;;;5052373;28;20485;-68
2022/05/12 13:03:08;;;;;;;6.33;6.00;;;23.60;59.20;;;;;;5051980;28;20459;-68
2022/05/12 13:05:36;;;;;;;5.83;5.53;;;23.70;60.60;;;;;;5051752;28;20424;-68
2022/05/12 13:08:19;;;;;;;4.40;4.17;;;23.70;59.60;;;;;;5052318;28;20408;-68
2022/05/12 13:10:49;;;;;;;5.57;5.03;;;23.80;61.40;;;;;;5051679;28;20435;-68
2022/05/12 13:13:16;;;;;;;4.87;4.47;;;23.90;59.00;;;;;;5052256;28;20398;-68
2022/05/12 13:15:45;;;;;;;5.50;5.10;;;23.90;61.10;;;;;;5051911;28;20408;-68
2022/05/12 13:18:28;;;;;;;5.00;4.70;;;23.90;60.00;;;;;;5052031;28;20409;-68
2022/05/12 13:20:54;;;;;;;4.63;4.30;;;23.80;59.80;;;;;;5051553;28;20523;-68
2022/05/12 13:23:29;;;;;;;6.00;5.50;;;23.70;60.40;;;;;;5051033;28;20511;-68
2022/05/12 13:25:56;;;;;;;5.23;4.87;;;23.70;60.00;;;;;;5051616;28;20256;-68
2022/05/12 13:28:27;;;;;;;5.50;5.00;;;23.60;59.40;;;;;;5052069;28;20453;-68
2022/05/12 13:31:10;;;;;;;6.70;6.30;;;23.50;59.90;;;;;;5052961;28;20451;-68